createdAt,value
2022-09-03T00:00:02.208Z,0
2022-09-03T00:15:02.558Z,0
2022-09-03T00:30:02.927Z,0
2022-09-03T00:45:03.241Z,0
2022-09-03T01:00:01.406Z,0
2022-09-03T01:15:01.823Z,0
2022-09-03T01:30:02.243Z,0
2022-09-03T01:45:02.451Z,0
2022-09-03T02:00:02.750Z,0
2022-09-03T02:15:02.931Z,0
2022-09-03T02:30:02.079Z,0
2022-09-03T02:45:02.290Z,0
2022-09-03T03:00:01.897Z,0
2022-09-03T03:15:02.293Z,0
2022-09-03T03:30:01.473Z,0
2022-09-03T03:45:02.079Z,110.53
2022-09-03T04:00:01.947Z,110.17
2022-09-03T04:15:02.122Z,110.33
2022-09-03T04:30:01.899Z,110.21
2022-09-03T04:45:01.939Z,110.73
2022-09-03T05:00:01.855Z,111.5
2022-09-03T05:15:01.647Z,111.54
2022-09-03T05:30:02.131Z,111.3
2022-09-03T05:45:03.115Z,109.52
2022-09-03T06:00:02.166Z,108.14
2022-09-03T06:15:01.544Z,107.5
2022-09-03T06:30:02.234Z,106.93
2022-09-03T06:45:01.995Z,105.59
2022-09-03T07:00:02.335Z,105.51
2022-09-03T07:15:01.680Z,104.74
2022-09-03T07:30:02.244Z,99.44
2022-09-03T07:45:02.215Z,96.4
2022-09-03T08:00:01.630Z,91.95
2022-09-03T08:15:02.099Z,88.55
2022-09-03T08:30:03.101Z,86.77
2022-09-03T08:45:02.095Z,90.25
2022-09-03T09:00:01.809Z,85.2
2022-09-03T09:15:02.225Z,80.1
2022-09-03T09:30:01.547Z,81.7
2022-09-03T09:45:02.223Z,80.22
2022-09-03T10:00:02.047Z,80.26
2022-09-03T10:15:02.289Z,77.34
2022-09-03T10:30:01.782Z,79.49
2022-09-03T10:45:02.247Z,81.35
2022-09-03T11:00:02.296Z,78.88
2022-09-03T11:15:02.114Z,65.97
2022-09-03T11:30:01.975Z,63.18
2022-09-03T11:45:01.743Z,56.34
2022-09-03T12:00:01.899Z,64.31
2022-09-03T12:15:01.470Z,71.48
2022-09-03T12:30:02.488Z,77.59
2022-09-03T12:45:01.945Z,85.4
2022-09-03T13:00:02.226Z,89.24
2022-09-03T13:15:02.001Z,91.43
2022-09-03T13:30:02.283Z,98.2
2022-09-03T13:45:01.452Z,102.11
2022-09-03T14:00:01.696Z,104.3
2022-09-03T14:15:02.251Z,108.14
2022-09-03T14:30:01.581Z,109.72
2022-09-03T14:45:02.824Z,110.73
2022-09-03T15:00:03.242Z,110.73
2022-09-03T15:15:01.616Z,110.73
2022-09-03T15:30:02.622Z,110.73
2022-09-03T15:45:01.922Z,110.73
2022-09-03T16:00:02.292Z,110.73
2022-09-03T16:15:02.029Z,110.73
2022-09-03T16:30:01.828Z,110.73
2022-09-03T16:45:02.585Z,110.73
2022-09-03T17:00:02.233Z,110.73
2022-09-03T17:15:01.722Z,110.73
2022-09-03T17:30:02.922Z,110.73
2022-09-03T17:45:02.220Z,110.73
2022-09-03T18:00:02.148Z,110.73
2022-09-03T18:15:03.076Z,110.73
2022-09-03T18:30:01.815Z,110.73
2022-09-03T18:45:20.074Z,110.73
2022-09-03T19:00:02.233Z,110.73
2022-09-03T19:15:01.816Z,142.6
2022-09-03T19:30:01.808Z,142.6
2022-09-03T19:45:02.892Z,117.61
2022-09-03T20:00:02.704Z,116.16
2022-09-03T20:15:01.323Z,116.16
2022-09-03T20:30:02.565Z,116.16
2022-09-03T20:45:01.818Z,114.38
2022-09-03T21:00:02.229Z,114.62
2022-09-03T21:15:01.968Z,114.42
2022-09-03T21:30:02.592Z,146.2
2022-09-03T21:45:01.503Z,146.2
2022-09-03T22:00:01.793Z,146.2
2022-09-03T22:15:01.384Z,146.2
2022-09-03T22:30:02.416Z,146.2
2022-09-03T22:45:02.377Z,146.2
2022-09-03T23:00:02.994Z,146.2
2022-09-03T23:15:02.153Z,146.2
2022-09-03T23:30:02.176Z,146.2
2022-09-03T23:45:01.763Z,146.2
